Time;durP1;ratioP1;P1;durP2;ratioP2;P2;SDS_P1;SDS_P2;PMS_P1;PMS_P2;Temp;Humidity;BMP_temperature;BMP_pressure;BME280_temperature;BME280_humidity;BME280_pressure;Samples;Min_cycle;Max_cycle;Signal;HPM_P1;HPM_P2
2023/05/07 00:00:00;;;;;;;23.77;21.63;;;;;;;11.87;85.56;100912.66;5011482;28;20663;-83
2023/05/07 00:02:27;;;;;;;25.60;23.10;;;;;;;11.82;86.10;100914.47;5010109;28;20207;-82
2023/05/07 00:04:54;;;;;;;26.03;23.27;;;;;;;11.83;85.76;100904.84;5017263;28;20253;-83
2023/05/07 00:07:20;;;;;;;24.53;22.13;;;;;;;11.81;85.93;100906.63;5017619;28;20257;-82
2023/05/07 00:09:46;;;;;;;27.80;24.80;;;;;;;11.81;86.14;100896.16;5016860;28;20661;-81
2023/05/07 00:12:13;;;;;;;24.93;22.43;;;;;;;11.82;86.04;100896.16;5017229;28;20207;-84
2023/05/07 00:14:39;;;;;;;26.37;23.37;;;;;;;11.81;85.93;100891.78;5018300;28;20206;-82
2023/05/07 00:17:07;;;;;;;25.73;23.17;;;;;;;11.79;85.82;100904.03;5023640;28;20203;-83
2023/05/07 00:19:33;;;;;;;27.50;24.53;;;;;;;11.76;86.20;100888.41;5030306;28;20754;-80
2023/05/07 00:21:59;;;;;;;30.67;24.33;;;;;;;11.76;86.00;100891.03;5013265;28;20262;-80
2023/05/07 00:24:26;;;;;;;28.90;24.07;;;;;;;11.76;85.99;100891.03;5013215;28;20206;-81
2023/05/07 00:26:52;;;;;;;27.37;24.27;;;;;;;11.71;86.58;100885.00;5015041;28;20771;-80
2023/05/07 00:29:18;;;;;;;32.43;24.20;;;;;;;11.68;86.96;100871.97;5015760;28;20292;-83
2023/05/07 00:31:45;;;;;;;33.97;24.93;;;;;;;11.70;86.74;100865.84;5017073;28;20209;-84
2023/05/07 00:34:12;;;;;;;28.37;23.30;;;;;;;11.67;87.21;100852.81;5017763;28;20261;-83
2023/05/07 00:36:39;;;;;;;27.27;23.40;;;;;;;11.66;87.40;100845.00;5016778;28;20303;-83
2023/05/07 00:39:05;;;;;;;28.27;23.97;;;;;;;11.67;87.12;100846.72;5017575;28;20953;-82
2023/05/07 00:41:31;;;;;;;26.70;23.33;;;;;;;11.58;87.70;100837.28;5018316;28;20234;-84
2023/05/07 00:43:58;;;;;;;26.93;23.07;;;;;;;11.54;87.55;100827.75;5017958;28;20210;-83
2023/05/07 00:46:25;;;;;;;26.17;23.43;;;;;;;11.53;87.99;100826.91;5018562;28;20242;-84
2023/05/07 00:48:52;;;;;;;29.30;23.57;;;;;;;11.51;88.57;100825.19;5017660;28;20218;-84
2023/05/07 00:51:20;;;;;;;25.80;22.70;;;;;;;11.54;88.30;100817.31;5017047;28;20214;-84
2023/05/07 00:53:47;;;;;;;24.73;22.27;;;;;;;11.55;88.81;100823.38;5016770;28;20645;-84
2023/05/07 00:56:13;;;;;;;27.30;22.67;;;;;;;11.57;88.26;100825.09;5016356;28;20214;-84
2023/05/07 00:58:41;;;;;;;28.40;24.43;;;;;;;11.50;87.96;100824.34;5010851;28;20235;-84
2023/05/07 01:01:07;;;;;;;30.20;23.77;;;;;;;11.49;88.15;100822.59;4977864;28;1011054;-83
2023/05/07 01:03:34;;;;;;;25.47;22.73;;;;;;;11.48;88.66;100822.63;5015169;28;20736;-83
2023/05/07 01:06:02;;;;;;;31.40;23.50;;;;;;;11.44;88.47;100813.13;5016331;28;20210;-84
2023/05/07 01:08:30;;;;;;;30.03;24.07;;;;;;;11.45;89.19;100809.59;5015479;28;20260;-84
2023/05/07 01:10:58;;;;;;;29.87;24.80;;;;;;;11.46;89.15;100813.97;5014919;28;20275;-84
2023/05/07 01:13:25;;;;;;;26.17;23.10;;;;;;;11.44;89.15;100805.28;5015310;28;20210;-84
2023/05/07 01:15:52;;;;;;;28.53;23.37;;;;;;;11.40;89.69;100798.38;5015329;28;20207;-84
2023/05/07 01:18:18;;;;;;;32.07;24.03;;;;;;;11.38;89.72;100807.97;5015040;28;20210;-83
2023/05/07 01:20:45;;;;;;;26.90;23.37;;;;;;;11.36;89.84;100804.50;5014919;28;20592;-84
2023/05/07 01:23:13;;;;;;;31.67;24.57;;;;;;;11.35;89.80;100805.44;5019127;28;20261;-84
2023/05/07 01:25:40;;;;;;;28.50;22.97;;;;;;;11.31;89.84;100797.63;5019299;28;20275;-83
2023/05/07 01:28:06;;;;;;;30.83;24.07;;;;;;;11.29;90.16;100804.63;5019551;28;20268;-84
2023/05/07 01:30:35;;;;;;;25.23;22.63;;;;;;;11.31;89.82;100804.59;5018313;28;20287;-84
2023/05/07 01:33:05;;;;;;;31.20;24.60;;;;;;;11.27;89.88;100802.94;5002825;28;20249;-82
2023/05/07 01:35:38;;;;;;;27.03;23.13;;;;;;;11.26;89.85;100809.06;4998907;28;20694;-83
2023/05/07 01:38:06;;;;;;;27.37;23.00;;;;;;;11.22;89.91;100810.84;4999434;28;20339;-83
2023/05/07 01:40:34;;;;;;;24.27;21.77;;;;;;;11.20;90.05;100804.78;4998723;28;20780;-83
2023/05/07 01:43:02;;;;;;;25.30;22.47;;;;;;;11.17;90.42;100804.81;4998475;28;20218;-84
2023/05/07 01:45:29;;;;;;;24.13;20.67;;;;;;;11.17;90.03;100802.22;4999305;28;20269;-84
2023/05/07 01:47:56;;;;;;;22.33;19.23;;;;;;;11.18;90.03;100805.69;4998862;28;20227;-83
2023/05/07 01:50:22;;;;;;;21.27;19.07;;;;;;;11.16;90.19;100810.06;4998993;28;20231;-84
2023/05/07 01:52:51;;;;;;;23.17;18.23;;;;;;;11.17;89.96;100804.81;4999092;28;20285;-84
2023/05/07 01:55:17;;;;;;;21.43;19.13;;;;;;;11.12;90.16;100799.69;4999256;28;20207;-82
2023/05/07 01:57:45;;;;;;;20.70;17.63;;;;;;;11.14;89.99;100815.34;4999001;28;20217;-83
2023/05/07 02:00:12;;;;;;;18.47;16.73;;;;;;;11.13;89.50;100817.06;5015762;28;20288;-83
2023/05/07 02:02:39;;;;;;;19.10;17.23;;;;;;;11.11;89.38;100812.75;5020449;28;20210;-84
2023/05/07 02:05:08;;;;;;;17.67;15.97;;;;;;;11.07;89.64;100813.69;5021326;28;20213;-84
2023/05/07 02:07:35;;;;;;;18.43;16.73;;;;;;;11.08;89.35;100831.97;5020926;28;20272;-82
2023/05/07 02:10:01;;;;;;;18.07;16.33;;;;;;;11.08;88.83;100847.63;5020750;28;20608;-84
2023/05/07 02:12:27;;;;;;;16.37;14.97;;;;;;;11.06;89.12;100846.81;5014798;28;20206;-82
2023/05/07 02:14:55;;;;;;;17.53;15.93;;;;;;;11.08;89.06;100855.47;5014620;28;20205;-82
2023/05/07 02:17:21;;;;;;;16.63;14.77;;;;;;;11.10;88.53;100855.47;5014558;28;20669;-82
2023/05/07 02:19:48;;;;;;;16.40;14.83;;;;;;;11.10;88.27;100866.78;5014557;28;20239;-82
2023/05/07 02:22:14;;;;;;;16.10;14.57;;;;;;;11.10;88.29;100881.59;5014618;28;20206;-83
2023/05/07 02:24:40;;;;;;;14.90;13.60;;;;;;;11.10;88.29;100886.81;5014916;28;20257;-82
2023/05/07 02:27:07;;;;;;;15.60;14.20;;;;;;;11.09;88.49;100893.75;5014458;28;20219;-83
2023/05/07 02:29:33;;;;;;;16.00;14.60;;;;;;;11.07;88.04;100905.97;5006510;28;20293;-82
2023/05/07 02:32:01;;;;;;;15.40;14.10;;;;;;;11.06;88.18;100908.59;5006121;28;20619;-82
2023/05/07 02:34:29;;;;;;;15.43;14.13;;;;;;;11.07;88.45;100905.13;5013325;28;20260;-81
2023/05/07 02:36:55;;;;;;;15.30;14.10;;;;;;;11.06;88.25;100896.44;5014604;28;20206;-82
2023/05/07 02:39:22;;;;;;;15.43;14.03;;;;;;;11.04;88.37;100906.03;5014234;28;20238;-82
2023/05/07 02:41:48;;;;;;;15.37;14.10;;;;;;;11.06;88.55;100908.59;5014317;28;20207;-82
2023/05/07 02:44:14;;;;;;;16.17;14.53;;;;;;;11.06;88.47;100906.00;5014133;28;20207;-82
2023/05/07 02:46:41;;;;;;;15.20;13.90;;;;;;;11.07;88.54;100905.97;5014291;28;20225;-83
2023/05/07 02:49:08;;;;;;;14.83;13.63;;;;;;;11.08;88.35;100912.94;5014221;28;20222;-83
2023/05/07 02:51:34;;;;;;;15.17;13.90;;;;;;;11.08;88.10;100919.91;5014158;28;20678;-82
2023/05/07 02:54:01;;;;;;;15.50;14.10;;;;;;;11.10;87.76;100916.41;5014242;28;20210;-82
2023/05/07 02:56:28;;;;;;;14.53;13.27;;;;;;;11.12;87.40;100921.63;5013860;28;20587;-83
2023/05/07 02:58:54;;;;;;;15.67;14.37;;;;;;;11.06;87.42;100925.16;5007709;28;20215;-81
2023/05/07 03:01:20;;;;;;;15.87;14.50;;;;;;;11.06;87.45;100917.34;5005879;28;20218;-83
2023/05/07 03:03:47;;;;;;;15.33;14.03;;;;;;;11.03;87.72;100906.91;5033588;28;20684;-82
2023/05/07 03:06:15;;;;;;;16.03;14.70;;;;;;;11.06;87.50;100912.09;5033832;28;20209;-82
2023/05/07 03:08:41;;;;;;;16.40;14.97;;;;;;;11.10;87.19;100918.16;5033524;28;20209;-81
2023/05/07 03:11:07;;;;;;;16.13;14.83;;;;;;;11.02;87.56;100922.59;5033106;28;20252;-82
2023/05/07 03:13:34;;;;;;;17.07;15.57;;;;;;;11.01;87.87;100910.44;5033630;28;20268;-82
2023/05/07 03:16:00;;;;;;;15.07;13.87;;;;;;;11.02;87.45;100917.38;5033352;28;20268;-82
2023/05/07 03:18:26;;;;;;;15.50;14.10;;;;;;;11.04;87.65;100920.81;5033228;28;20685;-83
2023/05/07 03:20:53;;;;;;;15.73;14.30;;;;;;;11.04;87.59;100923.44;5033101;28;20238;-83
2023/05/07 03:23:20;;;;;;;15.80;14.33;;;;;;;11.05;87.92;100912.13;5033194;28;20218;-83
2023/05/07 03:25:47;;;;;;;16.33;14.93;;;;;;;11.04;87.76;100913.88;5033201;28;20205;-82
2023/05/07 03:28:13;;;;;;;15.00;13.80;;;;;;;11.06;87.35;100908.59;5032944;28;20210;-82
2023/05/07 03:30:39;;;;;;;16.57;15.03;;;;;;;11.07;87.16;100910.34;5017459;28;20222;-82
2023/05/07 03:33:06;;;;;;;15.27;13.97;;;;;;;11.03;87.45;100903.44;5001008;28;20217;-82
2023/05/07 03:35:32;;;;;;;15.63;14.23;;;;;;;11.00;87.47;100906.09;4993774;28;20216;-82
2023/05/07 03:37:58;;;;;;;15.47;14.17;;;;;;;10.98;87.43;100902.63;4993502;28;20745;-83
2023/05/07 03:40:26;;;;;;;15.63;14.33;;;;;;;10.95;88.07;100893.09;4993401;28;20227;-83
2023/05/07 03:42:52;;;;;;;15.80;14.20;;;;;;;10.93;88.70;100877.44;4993670;28;20223;-82
2023/05/07 03:45:19;;;;;;;14.93;13.63;;;;;;;10.94;88.62;100873.06;4993428;28;20674;-82
2023/05/07 03:47:45;;;;;;;15.70;14.30;;;;;;;10.92;88.77;100870.50;4993629;28;20215;-83
2023/05/07 03:50:11;;;;;;;14.43;12.97;;;;;;;10.94;88.54;100870.44;4993799;28;20784;-81
2023/05/07 03:52:38;;;;;;;15.10;13.77;;;;;;;10.92;88.76;100869.59;4993367;28;20207;-82
2023/05/07 03:55:05;;;;;;;14.47;13.17;;;;;;;10.92;88.86;100865.28;4993342;28;20218;-81
2023/05/07 03:57:33;;;;;;;14.23;13.03;;;;;;;10.93;88.78;100860.91;4993717;28;20221;-83
2023/05/07 03:59:59;;;;;;;15.13;13.57;;;;;;;10.91;88.75;100860.06;5007761;28;20761;-81
2023/05/07 04:02:25;;;;;;;14.57;13.43;;;;;;;10.87;88.95;100861.84;4994548;28;20211;-82
2023/05/07 04:04:52;;;;;;;14.53;13.33;;;;;;;10.89;89.15;100867.06;4993306;28;20218;-82
2023/05/07 04:07:19;;;;;;;13.73;12.63;;;;;;;10.89;88.83;100862.69;4993183;28;20211;-81
2023/05/07 04:09:46;;;;;;;13.73;12.37;;;;;;;10.85;89.17;100873.22;4993670;28;20226;-81
2023/05/07 04:12:12;;;;;;;14.87;13.43;;;;;;;10.84;89.41;100868.84;4993186;28;20266;-82
2023/05/07 04:14:40;;;;;;;14.83;13.53;;;;;;;10.79;89.85;100868.94;4993206;28;20207;-82
2023/05/07 04:17:07;;;;;;;13.93;12.73;;;;;;;10.80;89.86;100865.44;4993093;28;20675;-83
2023/05/07 04:19:34;;;;;;;14.07;12.93;;;;;;;10.80;90.06;100856.72;4992737;28;20710;-81
2023/05/07 04:22:00;;;;;;;13.83;12.73;;;;;;;10.81;89.95;100855.84;4992622;28;20218;-81
2023/05/07 04:24:27;;;;;;;12.90;11.87;;;;;;;10.80;90.10;100864.56;5012095;28;20198;-82
2023/05/07 04:26:54;;;;;;;13.90;12.73;;;;;;;10.83;89.67;100865.38;5032635;28;20218;-81
2023/05/07 04:29:21;;;;;;;13.30;12.10;;;;;;;10.80;89.90;100868.06;5022387;28;20237;-82
2023/05/07 04:31:49;;;;;;;13.83;12.73;;;;;;;10.82;89.99;100868.91;5012263;28;20623;-82
2023/05/07 04:34:15;;;;;;;14.13;12.93;;;;;;;10.84;89.77;100871.47;5012531;28;20209;-82
2023/05/07 04:36:43;;;;;;;13.33;12.23;;;;;;;10.83;89.93;100877.59;5012370;28;20766;-82
2023/05/07 04:39:10;;;;;;;13.23;11.93;;;;;;;10.79;89.50;100884.59;5012575;28;20604;-82
2023/05/07 04:41:37;;;;;;;13.43;12.33;;;;;;;10.79;89.49;100878.50;5012201;28;20826;-82
2023/05/07 04:44:04;;;;;;;14.13;12.93;;;;;;;10.76;90.00;100882.00;5012608;28;20577;-81
2023/05/07 04:46:30;;;;;;;14.00;12.60;;;;;;;10.80;89.52;100888.06;5012383;28;20206;-82
2023/05/07 04:48:58;;;;;;;13.97;12.77;;;;;;;10.79;89.17;100887.19;5012282;28;20874;-82
2023/05/07 04:51:25;;;;;;;12.20;11.10;;;;;;;10.80;88.84;100901.13;5012127;28;20211;-82
2023/05/07 04:53:51;;;;;;;13.27;12.17;;;;;;;10.76;89.29;100908.13;5015778;28;20216;-84
2023/05/07 04:56:17;;;;;;;13.67;12.57;;;;;;;10.79;88.93;100918.53;5017849;28;20206;-83
2023/05/07 04:58:44;;;;;;;12.63;11.63;;;;;;;10.76;88.65;100935.97;5020254;28;20209;-82
2023/05/07 05:01:10;;;;;;;13.13;12.03;;;;;;;10.72;89.16;100928.19;5055050;23;20290;-79
2023/05/07 05:03:36;;;;;;;13.20;12.07;;;;;;;10.73;88.66;100942.97;5041332;28;20281;-79
2023/05/07 05:06:05;;;;;;;13.43;12.13;;;;;;;10.68;89.30;100938.69;5041967;28;20221;-79
2023/05/07 05:08:31;;;;;;;14.30;13.00;;;;;;;10.68;89.15;100936.06;5043241;28;20285;-79
2023/05/07 05:10:58;;;;;;;13.70;12.50;;;;;;;10.73;88.82;100942.97;5042352;28;20711;-79
2023/05/07 05:13:24;;;;;;;12.27;11.17;;;;;;;10.76;88.51;100947.28;5042239;28;20632;-78
2023/05/07 05:15:50;;;;;;;12.70;11.77;;;;;;;10.78;88.58;100960.34;5041618;28;20212;-79
2023/05/07 05:18:17;;;;;;;13.07;11.70;;;;;;;10.80;87.66;100974.22;5041953;28;20217;-78
2023/05/07 05:20:43;;;;;;;12.77;11.67;;;;;;;10.80;87.51;100980.34;5041203;28;20606;-79
2023/05/07 05:23:11;;;;;;;12.73;11.60;;;;;;;10.80;87.53;100982.97;5041845;28;20213;-79
2023/05/07 05:25:39;;;;;;;12.43;11.37;;;;;;;10.80;87.32;100989.91;5041072;28;20683;-79
2023/05/07 05:28:05;;;;;;;12.17;11.07;;;;;;;10.80;86.98;101006.47;5042865;28;20209;-79
2023/05/07 05:30:31;;;;;;;12.57;11.47;;;;;;;10.81;87.06;101007.31;5041878;28;20226;-79
2023/05/07 05:32:58;;;;;;;11.73;10.83;;;;;;;10.81;87.50;101002.94;5042165;28;20206;-79
2023/05/07 05:35:24;;;;;;;11.47;10.47;;;;;;;10.85;87.25;101003.78;5042806;28;20621;-80
2023/05/07 05:37:50;;;;;;;11.90;10.90;;;;;;;10.89;87.27;101010.72;5044719;28;20223;-80
2023/05/07 05:40:18;;;;;;;10.80;9.90;;;;;;;10.87;86.88;101013.31;5044556;28;20267;-80
2023/05/07 05:42:44;;;;;;;10.93;10.03;;;;;;;10.91;86.11;101030.69;5045527;28;20743;-80
2023/05/07 05:45:11;;;;;;;10.30;9.50;;;;;;;10.91;86.09;101043.75;5044628;28;20300;-79
2023/05/07 05:47:38;;;;;;;10.57;9.77;;;;;;;10.92;85.99;101052.44;5044780;28;20206;-80
2023/05/07 05:50:06;;;;;;;10.47;9.57;;;;;;;10.90;85.51;101056.81;5044146;28;20222;-80
2023/05/07 05:52:32;;;;;;;10.97;10.13;;;;;;;10.90;85.04;101064.66;5044394;28;20205;-81
2023/05/07 05:54:59;;;;;;;11.20;10.33;;;;;;;10.86;85.46;101069.06;5045631;28;20202;-81
2023/05/07 05:57:26;;;;;;;10.50;9.70;;;;;;;10.89;85.22;101066.41;5045241;28;20604;-80
2023/05/07 05:59:53;;;;;;;11.17;10.30;;;;;;;10.87;85.22;101065.56;5046080;28;20232;-80
2023/05/07 06:02:19;;;;;;;11.53;10.63;;;;;;;10.89;84.75;101068.16;5046260;28;20214;-80
2023/05/07 06:04:46;;;;;;;9.83;9.13;;;;;;;10.94;84.53;101076.81;5047022;28;20216;-80
2023/05/07 06:07:12;;;;;;;9.77;8.97;;;;;;;10.96;84.13;101082.91;5044512;28;20209;-80
2023/05/07 06:09:38;;;;;;;9.90;9.10;;;;;;;10.97;84.15;101089.00;5044410;28;20238;-81
2023/05/07 06:12:05;;;;;;;9.80;9.00;;;;;;;11.00;83.99;101092.44;5045197;28;20208;-81
2023/05/07 06:14:33;;;;;;;10.37;9.57;;;;;;;11.07;83.98;101103.69;5044481;28;20241;-83
2023/05/07 06:16:59;;;;;;;9.70;8.90;;;;;;;11.06;83.96;101115.88;5043266;28;20287;-82
2023/05/07 06:19:27;;;;;;;10.57;9.77;;;;;;;11.13;83.65;101108.84;5042986;28;20213;-81
2023/05/07 06:21:56;;;;;;;10.30;9.30;;;;;;;11.17;83.19;101122.75;5042917;28;20288;-82
2023/05/07 06:24:22;;;;;;;8.77;8.03;;;;;;;11.20;82.49;101141.00;5043563;28;20260;-82
2023/05/07 06:26:49;;;;;;;9.53;8.73;;;;;;;11.18;82.04;101146.25;5044370;28;20212;-81
2023/05/07 06:29:15;;;;;;;9.40;8.70;;;;;;;11.19;82.40;101161.03;5043810;28;20217;-81
2023/05/07 06:31:43;;;;;;;9.40;8.60;;;;;;;11.19;83.07;101157.56;5043488;28;20245;-82
2023/05/07 06:34:09;;;;;;;9.60;8.87;;;;;;;11.22;82.25;101162.75;5044141;28;20254;-82
2023/05/07 06:36:36;;;;;;;9.20;8.47;;;;;;;11.25;81.91;101166.19;5043696;28;20209;-82
2023/05/07 06:39:02;;;;;;;8.97;8.27;;;;;;;11.29;82.14;101175.75;5043618;28;20207;-82
2023/05/07 06:41:28;;;;;;;8.43;7.83;;;;;;;11.34;81.88;101173.09;5043612;28;20799;-81
2023/05/07 06:43:55;;;;;;;8.60;7.90;;;;;;;11.38;81.51;101177.41;5044307;28;20268;-81
2023/05/07 06:46:21;;;;;;;8.10;7.50;;;;;;;11.41;81.80;101182.59;5044088;28;20608;-81
2023/05/07 06:48:49;;;;;;;8.27;7.63;;;;;;;11.46;81.67;101174.72;5045659;28;20206;-81
2023/05/07 06:51:15;;;;;;;8.00;7.40;;;;;;;11.51;81.37;101179.00;5045111;28;20224;-81
2023/05/07 06:53:41;;;;;;;7.67;7.10;;;;;;;11.57;81.49;101185.91;5045355;28;20680;-81
2023/05/07 06:56:08;;;;;;;7.93;7.33;;;;;;;11.59;81.96;101176.28;5046162;28;20228;-81
2023/05/07 06:58:34;;;;;;;8.00;7.40;;;;;;;11.69;80.91;101184.91;5045532;28;20261;-81
2023/05/07 07:01:00;;;;;;;8.33;7.63;;;;;;;11.73;80.73;101204.91;5044656;28;20269;-81
2023/05/07 07:03:27;;;;;;;7.57;6.97;;;;;;;11.79;80.37;101203.97;5044598;28;20210;-81
2023/05/07 07:05:55;;;;;;;8.10;7.50;;;;;;;11.83;79.71;101218.75;5043377;28;20207;-81
2023/05/07 07:08:22;;;;;;;7.37;6.83;;;;;;;11.89;78.87;101237.91;5044121;28;20235;-82
2023/05/07 07:10:49;;;;;;;7.33;6.73;;;;;;;11.92;79.54;101243.09;5045619;28;20256;-81
2023/05/07 07:13:15;;;;;;;8.17;7.47;;;;;;;11.98;79.70;101239.53;5042671;28;20213;-81
2023/05/07 07:15:42;;;;;;;7.67;7.03;;;;;;;12.04;78.79;101259.53;5042628;28;20213;-81
2023/05/07 07:18:08;;;;;;;6.83;6.33;;;;;;;12.03;77.87;101279.63;5042309;28;20207;-78
2023/05/07 07:20:34;;;;;;;8.20;7.60;;;;;;;12.07;78.34;101289.16;5033240;28;20249;-79
2023/05/07 07:23:02;;;;;;;8.00;7.40;;;;;;;12.11;77.92;101283.00;5031145;28;20202;-79
2023/05/07 07:25:28;;;;;;;7.67;7.07;;;;;;;12.20;78.06;101297.72;5034662;28;20255;-79
2023/05/07 07:27:55;;;;;;;7.67;7.07;;;;;;;12.25;78.52;101303.78;5036286;28;20202;-79
2023/05/07 07:30:21;;;;;;;8.13;7.53;;;;;;;12.40;77.92;101299.22;5036389;28;20229;-79
2023/05/07 07:32:47;;;;;;;7.40;6.90;;;;;;;12.45;76.68;101314.00;5035171;28;20209;-79
2023/05/07 07:35:14;;;;;;;7.60;7.10;;;;;;;12.49;76.27;101338.41;5035700;28;20672;-79
2023/05/07 07:37:40;;;;;;;7.90;6.70;;;;;;;12.57;75.97;101344.41;5035650;28;20256;-79
2023/05/07 07:40:09;;;;;;;7.80;7.23;;;;;;;12.61;74.95;101355.72;5035648;28;20234;-79
2023/05/07 07:42:35;;;;;;;7.23;6.67;;;;;;;12.67;75.07;101379.22;5034204;28;20324;-78
2023/05/07 07:45:02;;;;;;;7.30;6.80;;;;;;;12.74;74.74;101380.84;5035308;28;20213;-78
2023/05/07 07:47:29;;;;;;;7.80;7.30;;;;;;;12.78;73.82;101393.03;5035461;28;20330;-79
2023/05/07 07:49:55;;;;;;;7.67;7.17;;;;;;;12.78;74.83;101407.88;5034986;28;20230;-79
2023/05/07 07:52:21;;;;;;;7.70;7.10;;;;;;;12.78;74.74;101400.88;5035381;28;20208;-77
2023/05/07 07:54:48;;;;;;;7.70;7.10;;;;;;;12.83;75.93;101385.13;5034878;28;20209;-79
2023/05/07 07:57:15;;;;;;;8.70;7.53;;;;;;;12.90;75.99;101368.41;5035047;28;20213;-79
2023/05/07 07:59:43;;;;;;;8.50;7.90;;;;;;;12.93;74.67;101394.59;5034170;28;20237;-79
2023/05/07 08:02:09;;;;;;;10.47;9.67;;;;;;;12.97;75.10;101403.28;5034383;28;20584;-79
2023/05/07 08:04:37;;;;;;;10.30;9.57;;;;;;;13.00;73.97;101406.75;5034458;28;20206;-79
2023/05/07 08:07:03;;;;;;;10.77;9.97;;;;;;;13.02;73.64;101425.03;5033671;28;20680;-78
2023/05/07 08:09:29;;;;;;;10.70;9.97;;;;;;;12.98;73.25;101429.44;5033753;28;20214;-78
2023/05/07 08:11:56;;;;;;;11.68;10.88;;;;;;;12.96;72.95;101461.81;5033089;28;20434;-78
2023/05/07 08:14:23;;;;;;;11.30;10.50;;;;;;;12.96;73.34;101467.06;5035014;28;20214;-79
2023/05/07 08:16:50;;;;;;;10.63;9.93;;;;;;;12.94;73.77;101456.59;5035727;28;20249;-80
2023/05/07 08:19:16;;;;;;;10.83;10.03;;;;;;;12.97;74.08;101445.22;5034706;28;20252;-78
2023/05/07 08:21:42;;;;;;;10.93;10.13;;;;;;;12.92;73.69;101460.97;5034102;28;20264;-79
2023/05/07 08:24:09;;;;;;;10.63;9.87;;;;;;;12.96;73.68;101446.09;5034921;28;20205;-79
2023/05/07 08:26:35;;;;;;;11.20;10.40;;;;;;;12.95;74.06;101449.63;5035250;28;20206;-79
2023/05/07 08:29:02;;;;;;;10.23;9.53;;;;;;;12.94;74.15;101440.84;5035101;28;20304;-79
2023/05/07 08:31:29;;;;;;;10.50;9.70;;;;;;;12.93;73.48;101443.53;5034139;28;20288;-79
2023/05/07 08:33:56;;;;;;;9.80;9.10;;;;;;;12.95;73.61;101449.63;5035194;28;20255;-79
2023/05/07 08:36:22;;;;;;;9.47;8.77;;;;;;;12.95;74.28;101441.75;5034994;28;20214;-79
2023/05/07 08:38:49;;;;;;;10.40;9.60;;;;;;;13.00;74.78;101419.84;5035704;28;20214;-79
2023/05/07 08:41:16;;;;;;;10.10;9.40;;;;;;;13.03;73.66;101437.28;5034152;28;20233;-78
2023/05/07 08:43:42;;;;;;;9.87;9.17;;;;;;;13.03;73.39;101443.38;5035204;28;20205;-78
2023/05/07 08:46:10;;;;;;;9.60;8.90;;;;;;;13.06;73.88;101440.72;5035308;28;20270;-79
2023/05/07 08:48:38;;;;;;;9.47;8.77;;;;;;;13.15;74.06;101433.63;5034493;28;20248;-79
2023/05/07 08:51:04;;;;;;;10.00;9.30;;;;;;;13.17;73.69;101435.31;5035205;28;20233;-79
2023/05/07 08:53:31;;;;;;;9.13;8.53;;;;;;;13.09;72.81;101445.91;5035957;28;20745;-79
2023/05/07 08:55:57;;;;;;;9.73;8.93;;;;;;;13.09;74.54;101453.78;5035602;28;20206;-79
2023/05/07 08:58:24;;;;;;;9.57;8.80;;;;;;;13.14;74.54;101414.41;5036080;28;20206;-79
2023/05/07 09:00:52;;;;;;;8.53;7.93;;;;;;;13.16;73.65;101435.34;5035662;28;20252;-79
2023/05/07 09:03:18;;;;;;;9.50;8.80;;;;;;;13.18;73.54;101444.06;5034892;28;20214;-79
2023/05/07 09:05:46;;;;;;;8.60;7.80;;;;;;;13.22;73.96;101435.25;5035880;28;20217;-79
2023/05/07 09:08:16;;;;;;;9.03;8.33;;;;;;;13.29;74.01;101423.81;5035951;28;20260;-80
2023/05/07 09:10:42;;;;;;;8.23;7.63;;;;;;;13.37;73.55;101426.34;5035965;28;20218;-79
2023/05/07 09:13:10;;;;;;;7.97;7.30;;;;;;;13.39;72.32;101440.31;5035952;28;20248;-79
2023/05/07 09:15:36;;;;;;;8.17;7.40;;;;;;;13.32;71.78;101465.75;5035712;28;20213;-79
2023/05/07 09:18:03;;;;;;;8.47;7.87;;;;;;;13.29;71.91;101487.63;5034993;28;20211;-79
2023/05/07 09:20:31;;;;;;;9.50;8.80;;;;;;;13.24;72.36;101471.06;5035079;28;20252;-78
2023/05/07 09:22:59;;;;;;;10.43;9.63;;;;;;;13.20;72.92;101478.97;5034168;28;20321;-79
2023/05/07 09:25:29;;;;;;;9.67;8.97;;;;;;;13.16;72.76;101472.03;5034407;28;20240;-79
2023/05/07 09:27:56;;;;;;;9.53;8.90;;;;;;;13.19;73.66;101451.91;5035054;28;20560;-79
2023/05/07 09:30:22;;;;;;;10.87;10.07;;;;;;;13.21;73.72;101434.41;5034583;28;20226;-79
2023/05/07 09:32:48;;;;;;;11.20;10.40;;;;;;;13.24;73.50;101438.72;5034039;28;20238;-79
2023/05/07 09:35:16;;;;;;;10.20;9.50;;;;;;;13.23;73.57;101440.47;5034532;28;20210;-79
2023/05/07 09:37:43;;;;;;;11.70;10.80;;;;;;;13.26;74.02;101426.47;5033916;28;20217;-79
2023/05/07 09:40:21;;;;;;;10.87;10.07;;;;;;;13.25;74.42;101415.09;5034225;28;20290;-79
2023/05/07 09:42:47;;;;;;;10.47;9.77;;;;;;;13.34;74.49;101400.16;5034601;28;20221;-79
2023/05/07 09:45:14;;;;;;;12.30;11.37;;;;;;;13.30;73.64;101405.47;5037751;28;20210;-79
2023/05/07 09:47:45;;;;;;;12.00;11.20;;;;;;;13.34;74.38;101408.91;5038039;28;20209;-79
2023/05/07 09:50:16;;;;;;;11.20;10.40;;;;;;;13.37;73.17;101410.63;5040107;28;20253;-79
2023/05/07 09:52:43;;;;;;;11.43;10.53;;;;;;;13.36;73.18;101421.97;5039728;28;20673;-79
2023/05/07 09:55:11;;;;;;;12.53;11.63;;;;;;;13.33;72.38;101437.78;5039545;28;20237;-79
2023/05/07 09:57:39;;;;;;;12.80;11.90;;;;;;;13.28;73.43;101440.44;5039159;28;20288;-79
2023/05/07 10:00:08;;;;;;;11.83;11.03;;;;;;;13.31;73.03;101441.28;5038772;28;20234;-79
2023/05/07 10:02:36;;;;;;;12.37;11.47;;;;;;;13.33;73.07;101443.88;5038119;28;20312;-79
2023/05/07 10:05:03;;;;;;;12.93;12.03;;;;;;;13.30;71.87;101457.91;5038950;28;20213;-79
2023/05/07 10:07:30;;;;;;;13.73;12.70;;;;;;;13.29;72.50;101455.28;5038795;28;20256;-78
2023/05/07 10:09:58;;;;;;;13.30;12.30;;;;;;;13.30;72.65;101471.03;5038068;28;20226;-79
2023/05/07 10:12:27;;;;;;;13.73;12.73;;;;;;;13.41;73.18;101456.88;5039122;28;20202;-79
2023/05/07 10:14:55;;;;;;;13.10;12.10;;;;;;;13.49;73.36;101453.25;5039692;28;20260;-79
2023/05/07 10:17:23;;;;;;;11.87;11.07;;;;;;;13.59;73.00;101448.75;5039068;28;20205;-78
2023/05/07 10:19:51;;;;;;;13.33;12.10;;;;;;;13.63;72.21;101458.28;5038539;28;20581;-78
2023/05/07 10:22:18;;;;;;;12.37;11.57;;;;;;;13.68;72.26;101466.97;5038413;28;20221;-78
2023/05/07 10:24:47;;;;;;;12.03;11.23;;;;;;;13.76;72.01;101464.22;5038878;28;20253;-79
2023/05/07 10:27:16;;;;;;;11.87;11.07;;;;;;;13.80;71.45;101483.44;5038295;28;20206;-79
2023/05/07 10:29:53;;;;;;;12.00;11.20;;;;;;;13.83;72.11;101489.47;5038728;28;20235;-79
2023/05/07 10:32:36;;;;;;;12.37;11.47;;;;;;;13.89;71.53;101496.38;5037658;28;20198;-78
2023/05/07 10:35:07;;;;;;;12.20;11.30;;;;;;;13.93;71.97;101508.56;5037713;28;20249;-78
2023/05/07 10:37:34;;;;;;;12.43;11.53;;;;;;;14.04;72.45;101492.66;5038405;28;20210;-79
2023/05/07 10:40:01;;;;;;;12.00;11.17;;;;;;;14.05;70.96;101492.66;5038850;28;20219;-79
2023/05/07 10:42:28;;;;;;;12.47;11.57;;;;;;;14.12;71.25;101509.16;5040773;28;20261;-79
2023/05/07 10:44:56;;;;;;;12.40;11.40;;;;;;;14.23;71.32;101506.34;5040447;28;20738;-79
2023/05/07 10:47:22;;;;;;;12.20;11.30;;;;;;;14.33;70.61;101518.44;5040736;28;20247;-79
2023/05/07 10:50:24;;;;;;;11.03;10.30;;;;;;;14.38;69.39;101540.22;5040123;28;20234;-80
2023/05/07 10:53:28;;;;;;;10.60;9.80;;;;;;;14.45;68.67;101573.41;5041241;28;20207;-80
2023/05/07 10:56:26;;;;;;;10.33;9.63;;;;;;;14.49;68.57;101584.72;5040848;28;20210;-80
2023/05/07 10:58:53;;;;;;;11.30;10.57;;;;;;;14.53;68.40;101594.28;5036271;28;20298;-80
2023/05/07 11:01:50;;;;;;;11.63;10.83;;;;;;;14.60;67.96;101613.47;5039829;22;20228;-84
2023/05/07 11:04:17;;;;;;;10.93;10.23;;;;;;;14.60;67.45;101635.34;5015384;28;20261;-84
2023/05/07 11:07:16;;;;;;;10.87;10.17;;;;;;;14.58;67.62;101646.78;5016007;28;20621;-84
2023/05/07 11:10:05;;;;;;;10.47;9.77;;;;;;;14.57;67.83;101645.03;5015923;28;20218;-84
2023/05/07 11:12:54;;;;;;;10.23;9.53;;;;;;;14.50;67.40;101652.13;4996289;28;20411;-86
2023/05/07 11:15:48;;;;;;;10.77;10.07;;;;;;;14.56;67.92;101645.91;4996220;28;20215;-86